sensor_id;sensor_type;location;lat;lon;timestamp;pressure;altitude;pressure_sealevel;temperature;humidity
50103;BME280;35993;52.604;10.078;2023-11-21T00:01:00;100551.09;;;8.88;100.00
50103;BME280;35993;52.604;10.078;2023-11-21T00:03:32;100554.63;;;8.82;100.00
50103;BME280;35993;52.604;10.078;2023-11-21T00:06:32;100561.69;;;8.96;100.00
50103;BME280;35993;52.604;10.078;2023-11-21T00:09:16;100549.44;;;9.00;100.00
50103;BME280;35993;52.604;10.078;2023-11-21T00:12:12;100549.00;;;8.97;100.00
50103;BME280;35993;52.604;10.078;2023-11-21T00:15:07;100550.88;;;9.03;100.00
50103;BME280;35993;52.604;10.078;2023-11-21T00:18:30;100565.47;;;9.02;100.00
50103;BME280;35993;52.604;10.078;2023-11-21T00:21:05;100555.25;;;8.97;100.00
50103;BME280;35993;52.604;10.078;2023-11-21T00:24:00;100571.28;;;9.06;100.00
50103;BME280;35993;52.604;10.078;2023-11-21T00:26:30;100571.69;;;9.02;100.00
50103;BME280;35993;52.604;10.078;2023-11-21T00:29:28;100562.53;;;9.17;100.00
50103;BME280;35993;52.604;10.078;2023-11-21T00:32:11;100565.66;;;8.87;100.00
50103;BME280;35993;52.604;10.078;2023-11-21T00:34:49;100564.41;;;9.10;100.00
50103;BME280;35993;52.604;10.078;2023-11-21T00:37:35;100565.66;;;8.94;100.00
50103;BME280;35993;52.604;10.078;2023-11-21T00:40:15;100555.88;;;9.06;100.00
50103;BME280;35993;52.604;10.078;2023-11-21T00:42:47;100560.88;;;9.09;100.00
50103;BME280;35993;52.604;10.078;2023-11-21T00:45:30;100556.69;;;9.00;100.00
50103;BME280;35993;52.604;10.078;2023-11-21T00:48:14;100569.19;;;9.01;100.00
50103;BME280;35993;52.604;10.078;2023-11-21T00:50:45;100570.06;;;9.01;100.00
50103;BME280;35993;52.604;10.078;2023-11-21T00:53:56;100567.97;;;8.97;100.00
50103;BME280;35993;52.604;10.078;2023-11-21T00:56:29;100566.31;;;8.89;100.00
50103;BME280;35993;52.604;10.078;2023-11-21T00:59:05;100571.09;;;9.00;100.00
50103;BME280;35993;52.604;10.078;2023-11-21T01:02:04;100578.56;;;9.05;100.00
50103;BME280;35993;52.604;10.078;2023-11-21T01:05:09;100576.91;;;8.97;100.00
50103;BME280;35993;52.604;10.078;2023-11-21T01:08:00;100581.72;;;8.75;100.00
50103;BME280;35993;52.604;10.078;2023-11-21T01:10:33;100587.31;;;8.67;100.00
50103;BME280;35993;52.604;10.078;2023-11-21T01:13:23;100572.34;;;8.58;100.00
50103;BME280;35993;52.604;10.078;2023-11-21T01:16:14;100590.47;;;8.57;100.00
50103;BME280;35993;52.604;10.078;2023-11-21T01:18:56;100585.22;;;8.49;100.00
50103;BME280;35993;52.604;10.078;2023-11-21T01:21:47;100594.41;;;8.48;100.00
50103;BME280;35993;52.604;10.078;2023-11-21T01:24:42;100592.31;;;8.50;100.00
50103;BME280;35993;52.604;10.078;2023-11-21T01:27:11;100599.56;;;8.43;100.00
50103;BME280;35993;52.604;10.078;2023-11-21T01:29:48;100603.13;;;8.57;100.00
50103;BME280;35993;52.604;10.078;2023-11-21T01:32:32;100601.69;;;8.74;100.00
50103;BME280;35993;52.604;10.078;2023-11-21T01:35:39;100605.25;;;8.75;100.00
50103;BME280;35993;52.604;10.078;2023-11-21T01:38:33;100603.38;;;8.82;100.00
50103;BME280;35993;52.604;10.078;2023-11-21T01:41:11;100608.78;;;8.82;100.00
50103;BME280;35993;52.604;10.078;2023-11-21T01:43:44;100613.38;;;8.88;100.00
50103;BME280;35993;52.604;10.078;2023-11-21T01:46:15;100604.22;;;8.89;100.00
50103;BME280;35993;52.604;10.078;2023-11-21T01:48:54;100601.91;;;8.93;100.00
50103;BME280;35993;52.604;10.078;2023-11-21T01:51:50;100605.22;;;8.95;100.00
50103;BME280;35993;52.604;10.078;2023-11-21T01:54:31;100613.56;;;8.93;100.00
50103;BME280;35993;52.604;10.078;2023-11-21T01:57:01;100604.41;;;8.81;100.00
50103;BME280;35993;52.604;10.078;2023-11-21T01:59:46;100606.91;;;8.76;100.00
50103;BME280;35993;52.604;10.078;2023-11-21T02:02:24;100611.69;;;8.87;100.00
50103;BME280;35993;52.604;10.078;2023-11-21T02:05:04;100611.09;;;8.92;100.00
50103;BME280;35993;52.604;10.078;2023-11-21T02:07:36;100619.19;;;8.92;100.00
50103;BME280;35993;52.604;10.078;2023-11-21T02:10:37;100617.75;;;8.89;100.00
50103;BME280;35993;52.604;10.078;2023-11-21T02:13:18;100616.69;;;8.83;100.00
50103;BME280;35993;52.604;10.078;2023-11-21T02:16:35;100616.28;;;8.87;100.00
50103;BME280;35993;52.604;10.078;2023-11-21T02:19:31;100616.50;;;8.92;100.00
50103;BME280;35993;52.604;10.078;2023-11-21T02:22:55;100623.59;;;8.93;100.00
50103;BME280;35993;52.604;10.078;2023-11-21T02:25:57;100622.94;;;8.91;100.00
50103;BME280;35993;52.604;10.078;2023-11-21T02:28:29;100629.81;;;8.87;100.00
50103;BME280;35993;52.604;10.078;2023-11-21T02:30:59;100622.94;;;8.84;100.00
50103;BME280;35993;52.604;10.078;2023-11-21T02:33:46;100635.84;;;8.82;100.00
50103;BME280;35993;52.604;10.078;2023-11-21T02:36:21;100631.50;;;8.88;100.00
50103;BME280;35993;52.604;10.078;2023-11-21T02:38:53;100629.81;;;8.87;100.00
50103;BME280;35993;52.604;10.078;2023-11-21T02:41:37;100630.63;;;8.87;100.00
50103;BME280;35993;52.604;10.078;2023-11-21T02:44:30;100632.50;;;8.73;100.00
50103;BME280;35993;52.604;10.078;2023-11-21T02:47:15;100632.09;;;8.76;100.00
50103;BME280;35993;52.604;10.078;2023-11-21T02:49:46;100633.75;;;8.64;100.00
50103;BME280;35993;52.604;10.078;2023-11-21T02:52:47;100635.41;;;8.72;100.00
50103;BME280;35993;52.604;10.078;2023-11-21T02:56:16;100632.75;;;8.85;100.00
50103;BME280;35993;52.604;10.078;2023-11-21T02:59:01;100641.03;;;8.83;100.00
50103;BME280;35993;52.604;10.078;2023-11-21T03:02:22;100642.09;;;8.89;100.00
50103;BME280;35993;52.604;10.078;2023-11-21T03:04:51;100644.19;;;8.74;100.00
50103;BME280;35993;52.604;10.078;2023-11-21T03:07:32;100654.78;;;8.89;100.00
50103;BME280;35993;52.604;10.078;2023-11-21T03:10:26;100654.78;;;8.82;100.00
50103;BME280;35993;52.604;10.078;2023-11-21T03:12:56;100649.59;;;8.80;100.00
50103;BME280;35993;52.604;10.078;2023-11-21T03:15:48;100653.13;;;8.74;100.00
50103;BME280;35993;52.604;10.078;2023-11-21T03:18:56;100658.13;;;8.77;100.00
50103;BME280;35993;52.604;10.078;2023-11-21T03:21:36;100666.88;;;8.79;100.00
50103;BME280;35993;52.604;10.078;2023-11-21T03:24:27;100671.88;;;8.89;100.00
50103;BME280;35993;52.604;10.078;2023-11-21T03:27:34;100673.34;;;8.98;100.00
50103;BME280;35993;52.604;10.078;2023-11-21T03:30:26;100677.09;;;8.97;100.00
50103;BME280;35993;52.604;10.078;2023-11-21T03:33:16;100672.72;;;8.96;100.00
50103;BME280;35993;52.604;10.078;2023-11-21T03:36:24;100685.03;;;9.06;100.00
50103;BME280;35993;52.604;10.078;2023-11-21T03:38:59;100683.56;;;9.10;100.00
50103;BME280;35993;52.604;10.078;2023-11-21T03:41:42;100692.50;;;9.10;100.00
50103;BME280;35993;52.604;10.078;2023-11-21T03:44:22;100697.94;;;9.17;100.00
50103;BME280;35993;52.604;10.078;2023-11-21T03:46:54;100691.25;;;9.13;100.00
50103;BME280;35993;52.604;10.078;2023-11-21T03:50:14;100694.81;;;9.20;100.00
50103;BME280;35993;52.604;10.078;2023-11-21T03:53:36;100697.94;;;9.17;100.00
50103;BME280;35993;52.604;10.078;2023-11-21T03:56:24;100696.69;;;9.13;100.00
50103;BME280;35993;52.604;10.078;2023-11-21T03:59:03;100702.31;;;9.05;100.00
50103;BME280;35993;52.604;10.078;2023-11-21T04:01:57;100705.00;;;9.05;100.00
50103;BME280;35993;52.604;10.078;2023-11-21T04:05:00;100710.84;;;9.01;100.00
50103;BME280;35993;52.604;10.078;2023-11-21T04:07:37;100710.44;;;8.98;100.00
50103;BME280;35993;52.604;10.078;2023-11-21T04:10:36;100717.50;;;8.99;100.00
50103;BME280;35993;52.604;10.078;2023-11-21T04:13:18;100717.09;;;9.09;100.00
50103;BME280;35993;52.604;10.078;2023-11-21T04:16:09;100725.03;;;9.17;100.00
50103;BME280;35993;52.604;10.078;2023-11-21T04:19:17;100718.38;;;9.20;100.00
50103;BME280;35993;52.604;10.078;2023-11-21T04:22:18;100728.34;;;9.26;100.00
50103;BME280;35993;52.604;10.078;2023-11-21T04:25:14;100733.16;;;9.24;100.00
50103;BME280;35993;52.604;10.078;2023-11-21T04:27:47;100741.88;;;9.26;100.00
50103;BME280;35993;52.604;10.078;2023-11-21T04:30:26;100745.88;;;9.30;100.00
50103;BME280;35993;52.604;10.078;2023-11-21T04:32:59;100754.41;;;9.27;100.00
50103;BME280;35993;52.604;10.078;2023-11-21T04:35:38;100747.13;;;9.34;100.00
50103;BME280;35993;52.604;10.078;2023-11-21T04:38:49;100751.28;;;9.37;100.00
50103;BME280;35993;52.604;10.078;2023-11-21T04:41:26;100757.34;;;9.39;100.00
50103;BME280;35993;52.604;10.078;2023-11-21T04:44:11;100766.94;;;9.41;100.00
50103;BME280;35993;52.604;10.078;2023-11-21T04:46:39;100766.72;;;9.43;100.00
50103;BME280;35993;52.604;10.078;2023-11-21T04:49:37;100769.00;;;9.39;100.00
50103;BME280;35993;52.604;10.078;2023-11-21T04:52:49;100775.66;;;9.37;100.00
50103;BME280;35993;52.604;10.078;2023-11-21T04:55:19;100779.19;;;9.37;100.00
50103;BME280;35993;52.604;10.078;2023-11-21T04:58:18;100790.25;;;9.35;100.00
50103;BME280;35993;52.604;10.078;2023-11-21T05:00:54;100789.22;;;9.37;100.00
50103;BME280;35993;52.604;10.078;2023-11-21T05:03:29;100798.38;;;9.22;100.00
50103;BME280;35993;52.604;10.078;2023-11-21T05:06:14;100796.50;;;9.16;100.00
50103;BME280;35993;52.604;10.078;2023-11-21T05:09:23;100807.91;;;9.05;100.00
50103;BME280;35993;52.604;10.078;2023-11-21T05:12:06;100815.81;;;8.99;100.00
50103;BME280;35993;52.604;10.078;2023-11-21T05:15:17;100825.16;;;8.90;100.00
50103;BME280;35993;52.604;10.078;2023-11-21T05:17:47;100818.69;;;8.91;100.00
50103;BME280;35993;52.604;10.078;2023-11-21T05:21:16;100825.13;;;8.83;100.00
50103;BME280;35993;52.604;10.078;2023-11-21T05:24:33;100837.69;;;8.49;100.00
50103;BME280;35993;52.604;10.078;2023-11-21T05:27:15;100836.91;;;8.62;100.00
50103;BME280;35993;52.604;10.078;2023-11-21T05:30:24;100848.31;;;8.51;100.00
50103;BME280;35993;52.604;10.078;2023-11-21T05:33:24;100842.78;;;8.66;100.00
50103;BME280;35993;52.604;10.078;2023-11-21T05:35:55;100844.16;;;8.55;100.00
50103;BME280;35993;52.604;10.078;2023-11-21T05:38:25;100848.34;;;8.58;100.00
50103;BME280;35993;52.604;10.078;2023-11-21T05:41:44;100846.72;;;8.63;100.00
50103;BME280;35993;52.604;10.078;2023-11-21T05:44:26;100857.72;;;8.62;100.00
50103;BME280;35993;52.604;10.078;2023-11-21T05:47:00;100866.03;;;8.60;100.00
50103;BME280;35993;52.604;10.078;2023-11-21T05:49:58;100866.44;;;8.50;100.00
50103;BME280;35993;52.604;10.078;2023-11-21T05:52:40;100875.38;;;8.51;100.00
50103;BME280;35993;52.604;10.078;2023-11-21T05:55:18;100877.91;;;8.59;100.00
50103;BME280;35993;52.604;10.078;2023-11-21T05:59:22;100888.69;;;8.52;100.00
50103;BME280;35993;52.604;10.078;2023-11-21T06:02:27;100888.16;;;8.35;100.00
50103;BME280;35993;52.604;10.078;2023-11-21T06:05:29;100898.31;;;8.33;100.00
50103;BME280;35993;52.604;10.078;2023-11-21T06:07:59;100894.53;;;8.28;100.00
50103;BME280;35993;52.604;10.078;2023-11-21T06:10:34;100893.66;;;8.20;100.00
50103;BME280;35993;52.604;10.078;2023-11-21T06:13:59;100906.97;;;8.22;100.00
50103;BME280;35993;52.604;10.078;2023-11-21T06:16:45;100914.72;;;8.25;100.00
50103;BME280;35993;52.604;10.078;2023-11-21T06:19:15;100905.16;;;8.01;100.00
50103;BME280;35993;52.604;10.078;2023-11-21T06:21:52;100908.44;;;7.96;100.00
50103;BME280;35993;52.604;10.078;2023-11-21T06:24:43;100918.44;;;7.96;100.00
50103;BME280;35993;52.604;10.078;2023-11-21T06:27:09;100921.00;;;7.82;100.00
50103;BME280;35993;52.604;10.078;2023-11-21T06:29:56;100934.91;;;7.79;100.00
50103;BME280;35993;52.604;10.078;2023-11-21T06:32:44;100927.31;;;7.68;100.00
50103;BME280;35993;52.604;10.078;2023-11-21T06:35:19;100938.13;;;7.68;100.00
50103;BME280;35993;52.604;10.078;2023-11-21T06:37:47;100943.06;;;7.64;100.00
50103;BME280;35993;52.604;10.078;2023-11-21T06:40:18;100951.81;;;7.66;100.00
50103;BME280;35993;52.604;10.078;2023-11-21T06:42:44;100951.16;;;7.64;100.00
50103;BME280;35993;52.604;10.078;2023-11-21T06:45:33;100960.13;;;7.65;100.00
50103;BME280;35993;52.604;10.078;2023-11-21T06:48:00;100960.03;;;7.58;100.00
50103;BME280;35993;52.604;10.078;2023-11-21T06:50:27;100965.28;;;7.60;100.00
50103;BME280;35993;52.604;10.078;2023-11-21T06:52:52;100967.97;;;7.60;100.00
50103;BME280;35993;52.604;10.078;2023-11-21T06:55:18;100972.31;;;7.61;100.00
50103;BME280;35993;52.604;10.078;2023-11-21T06:57:45;100978.31;;;7.56;100.00
50103;BME280;35993;52.604;10.078;2023-11-21T07:00:15;100983.53;;;7.58;100.00
50103;BME280;35993;52.604;10.078;2023-11-21T07:02:46;100989.88;;;7.50;100.00
50103;BME280;35993;52.604;10.078;2023-11-21T07:05:13;100991.16;;;7.54;100.00
50103;BME280;35993;52.604;10.078;2023-11-21T07:07:49;101000.97;;;7.55;100.00
50103;BME280;35993;52.604;10.078;2023-11-21T07:10:17;101009.44;;;7.52;100.00
50103;BME280;35993;52.604;10.078;2023-11-21T07:12:44;101017.38;;;7.53;100.00
50103;BME280;35993;52.604;10.078;2023-11-21T07:15:10;101029.84;;;7.54;100.00
50103;BME280;35993;52.604;10.078;2023-11-21T07:17:36;101027.16;;;7.54;100.00
50103;BME280;35993;52.604;10.078;2023-11-21T07:20:03;101027.50;;;7.51;100.00
50103;BME280;35993;52.604;10.078;2023-11-21T07:22:29;101031.88;;;7.52;100.00
50103;BME280;35993;52.604;10.078;2023-11-21T07:24:55;101039.25;;;7.59;100.00
50103;BME280;35993;52.604;10.078;2023-11-21T07:27:22;101036.81;;;7.64;100.00
50103;BME280;35993;52.604;10.078;2023-11-21T07:29:47;101032.97;;;7.58;100.00
50103;BME280;35993;52.604;10.078;2023-11-21T07:32:14;101040.81;;;7.68;100.00
50103;BME280;35993;52.604;10.078;2023-11-21T07:34:42;101038.66;;;7.63;100.00
50103;BME280;35993;52.604;10.078;2023-11-21T07:37:10;101051.53;;;7.61;100.00
50103;BME280;35993;52.604;10.078;2023-11-21T07:39:35;101050.94;;;7.66;100.00
50103;BME280;35993;52.604;10.078;2023-11-21T07:42:04;101061.22;;;7.55;100.00
50103;BME280;35993;52.604;10.078;2023-11-21T07:44:30;101060.19;;;7.57;100.00
50103;BME280;35993;52.604;10.078;2023-11-21T07:46:55;101071.53;;;7.82;100.00
50103;BME280;35993;52.604;10.078;2023-11-21T07:49:23;101068.06;;;7.88;100.00
50103;BME280;35993;52.604;10.078;2023-11-21T07:51:52;101080.94;;;7.86;100.00
50103;BME280;35993;52.604;10.078;2023-11-21T07:54:18;101082.06;;;7.77;100.00
50103;BME280;35993;52.604;10.078;2023-11-21T07:56:44;101085.56;;;7.92;100.00
50103;BME280;35993;52.604;10.078;2023-11-21T07:59:10;101086.25;;;8.16;100.00
50103;BME280;35993;52.604;10.078;2023-11-21T08:01:40;101089.59;;;8.18;100.00
50103;BME280;35993;52.604;10.078;2023-11-21T08:04:05;101093.25;;;8.10;100.00
50103;BME280;35993;52.604;10.078;2023-11-21T08:06:33;101106.41;;;8.13;100.00
50103;BME280;35993;52.604;10.078;2023-11-21T08:09:01;101117.22;;;8.13;100.00
50103;BME280;35993;52.604;10.078;2023-11-21T08:11:26;101114.44;;;8.07;100.00
50103;BME280;35993;52.604;10.078;2023-11-21T08:13:54;101122.38;;;8.08;100.00
50103;BME280;35993;52.604;10.078;2023-11-21T08:16:21;101117.34;;;8.05;100.00
50103;BME280;35993;52.604;10.078;2023-11-21T08:18:47;101116.13;;;8.08;100.00
50103;BME280;35993;52.604;10.078;2023-11-21T08:21:16;101120.09;;;8.12;100.00
50103;BME280;35993;52.604;10.078;2023-11-21T08:23:41;101118.31;;;8.19;100.00
50103;BME280;35993;52.604;10.078;2023-11-21T08:26:07;101126.03;;;8.22;100.00
50103;BME280;35993;52.604;10.078;2023-11-21T08:28:34;101131.59;;;8.14;100.00
50103;BME280;35993;52.604;10.078;2023-11-21T08:31:01;101144.16;;;8.22;100.00
50103;BME280;35993;52.604;10.078;2023-11-21T08:33:26;101146.47;;;8.25;100.00
50103;BME280;35993;52.604;10.078;2023-11-21T08:35:52;101150.03;;;8.25;100.00
50103;BME280;35993;52.604;10.078;2023-11-21T08:38:17;101144.59;;;8.25;100.00
50103;BME280;35993;52.604;10.078;2023-11-21T08:40:43;101148.34;;;8.24;100.00
50103;BME280;35993;52.604;10.078;2023-11-21T08:43:08;101157.09;;;8.26;100.00
50103;BME280;35993;52.604;10.078;2023-11-21T08:45:40;101153.28;;;8.20;100.00
50103;BME280;35993;52.604;10.078;2023-11-21T08:48:06;101146.53;;;8.10;100.00
50103;BME280;35993;52.604;10.078;2023-11-21T08:50:32;101153.16;;;8.07;100.00
50103;BME280;35993;52.604;10.078;2023-11-21T08:52:59;101153.03;;;8.00;100.00
50103;BME280;35993;52.604;10.078;2023-11-21T08:55:27;101158.84;;;7.97;100.00
50103;BME280;35993;52.604;10.078;2023-11-21T08:57:54;101159.13;;;7.87;100.00
50103;BME280;35993;52.604;10.078;2023-11-21T09:00:21;101167.50;;;8.08;100.00
50103;BME280;35993;52.604;10.078;2023-11-21T09:02:50;101172.97;;;8.14;100.00
50103;BME280;35993;52.604;10.078;2023-11-21T09:05:17;101171.06;;;8.08;100.00
50103;BME280;35993;52.604;10.078;2023-11-21T09:07:44;101181.34;;;8.19;100.00
50103;BME280;35993;52.604;10.078;2023-11-21T09:10:12;101186.75;;;8.19;100.00
50103;BME280;35993;52.604;10.078;2023-11-21T09:12:39;101191.34;;;8.19;100.00
50103;BME280;35993;52.604;10.078;2023-11-21T09:15:07;101186.22;;;8.09;100.00
50103;BME280;35993;52.604;10.078;2023-11-21T09:17:36;101188.72;;;8.26;100.00
50103;BME280;35993;52.604;10.078;2023-11-21T09:20:03;101190.41;;;8.27;100.00
50103;BME280;35993;52.604;10.078;2023-11-21T09:22:32;101200.94;;;8.22;100.00
50103;BME280;35993;52.604;10.078;2023-11-21T09:25:00;101204.47;;;8.22;100.00
50103;BME280;35993;52.604;10.078;2023-11-21T09:27:25;101215.63;;;8.12;100.00
50103;BME280;35993;52.604;10.078;2023-11-21T09:29:55;101215.50;;;8.06;100.00
50103;BME280;35993;52.604;10.078;2023-11-21T09:32:22;101219.06;;;8.06;99.82
50103;BME280;35993;52.604;10.078;2023-11-21T09:34:51;101223.72;;;7.97;99.81
50103;BME280;35993;52.604;10.078;2023-11-21T09:37:21;101222.13;;;8.03;99.02
50103;BME280;35993;52.604;10.078;2023-11-21T09:39:59;101227.72;;;8.01;100.00
50103;BME280;35993;52.604;10.078;2023-11-21T09:42:30;101232.94;;;8.03;100.00
50103;BME280;35993;52.604;10.078;2023-11-21T09:45:06;101235.09;;;8.08;100.00
50103;BME280;35993;52.604;10.078;2023-11-21T09:47:41;101240.97;;;7.96;99.43
50103;BME280;35993;52.604;10.078;2023-11-21T09:50:08;101246.00;;;7.99;99.44
50103;BME280;35993;52.604;10.078;2023-11-21T09:52:54;101252.16;;;8.08;98.68
50103;BME280;35993;52.604;10.078;2023-11-21T09:55:28;101251.03;;;8.17;98.95
50103;BME280;35993;52.604;10.078;2023-11-21T09:58:06;101257.19;;;8.26;99.05
50103;BME280;35993;52.604;10.078;2023-11-21T10:00:40;101265.38;;;8.18;99.91
50103;BME280;35993;52.604;10.078;2023-11-21T10:03:06;101263.34;;;8.05;100.00
50103;BME280;35993;52.604;10.078;2023-11-21T10:05:32;101265.97;;;8.13;99.96
50103;BME280;35993;52.604;10.078;2023-11-21T10:07:59;101273.41;;;8.11;99.21
50103;BME280;35993;52.604;10.078;2023-11-21T10:10:28;101274.09;;;8.13;99.28
50103;BME280;35993;52.604;10.078;2023-11-21T10:12:56;101275.75;;;7.99;99.09
50103;BME280;35993;52.604;10.078;2023-11-21T10:15:23;101272.66;;;8.02;98.81
50103;BME280;35993;52.604;10.078;2023-11-21T10:17:52;101281.53;;;8.11;99.28
50103;BME280;35993;52.604;10.078;2023-11-21T10:20:20;101279.38;;;8.22;98.70
50103;BME280;35993;52.604;10.078;2023-11-21T10:22:49;101283.56;;;8.09;98.73
50103;BME280;35993;52.604;10.078;2023-11-21T10:25:14;101286.28;;;8.24;97.93
50103;BME280;35993;52.604;10.078;2023-11-21T10:27:42;101282.63;;;8.32;98.22
50103;BME280;35993;52.604;10.078;2023-11-21T10:30:09;101273.38;;;8.41;97.92
50103;BME280;35993;52.604;10.078;2023-11-21T10:32:41;101274.59;;;8.39;97.63
50103;BME280;35993;52.604;10.078;2023-11-21T10:35:09;101280.41;;;8.35;97.56
50103;BME280;35993;52.604;10.078;2023-11-21T10:37:39;101281.44;;;8.49;96.67
50103;BME280;35993;52.604;10.078;2023-11-21T10:40:07;101286.28;;;8.54;96.40
50103;BME280;35993;52.604;10.078;2023-11-21T10:42:33;101289.16;;;8.67;96.47
50103;BME280;35993;52.604;10.078;2023-11-21T10:44:59;101294.28;;;8.77;96.15
50103;BME280;35993;52.604;10.078;2023-11-21T10:47:26;101296.50;;;8.74;95.36
50103;BME280;35993;52.604;10.078;2023-11-21T10:49:52;101305.16;;;8.84;95.37
50103;BME280;35993;52.604;10.078;2023-11-21T10:52:26;101310.84;;;8.89;95.09
50103;BME280;35993;52.604;10.078;2023-11-21T10:54:52;101309.19;;;8.73;93.69
50103;BME280;35993;52.604;10.078;2023-11-21T10:57:20;101300.72;;;8.76;93.37
50103;BME280;35993;52.604;10.078;2023-11-21T11:00:13;101306.13;;;8.76;94.28
50103;BME280;35993;52.604;10.078;2023-11-21T11:02:43;101307.63;;;8.64;94.61
50103;BME280;35993;52.604;10.078;2023-11-21T11:05:20;101310.81;;;8.67;95.63
50103;BME280;35993;52.604;10.078;2023-11-21T11:07:48;101315.53;;;8.80;95.46
50103;BME280;35993;52.604;10.078;2023-11-21T11:10:23;101312.56;;;8.75;95.18
50103;BME280;35993;52.604;10.078;2023-11-21T11:13:00;101321.81;;;8.66;94.73
50103;BME280;35993;52.604;10.078;2023-11-21T11:15:27;101315.47;;;8.74;94.28
50103;BME280;35993;52.604;10.078;2023-11-21T11:17:54;101313.47;;;8.82;94.30
50103;BME280;35993;52.604;10.078;2023-11-21T11:20:29;101312.53;;;8.90;94.07
50103;BME280;35993;52.604;10.078;2023-11-21T11:23:13;101309.81;;;8.90;93.70
50103;BME280;35993;52.604;10.078;2023-11-21T11:26:20;101319.00;;;8.74;93.62
50103;BME280;35993;52.604;10.078;2023-11-21T11:29:10;101324.91;;;8.63;93.36
50103;BME280;35993;52.604;10.078;2023-11-21T11:32:10;101330.66;;;8.45;94.58
50103;BME280;35993;52.604;10.078;2023-11-21T11:34:59;101337.97;;;8.59;95.42
50103;BME280;35993;52.604;10.078;2023-11-21T11:37:31;101338.69;;;8.68;94.84
50103;BME280;35993;52.604;10.078;2023-11-21T11:39:59;101350.94;;;8.64;95.05
50103;BME280;35993;52.604;10.078;2023-11-21T11:42:26;101348.69;;;8.52;93.92
50103;BME280;35993;52.604;10.078;2023-11-21T11:44:54;101352.69;;;8.57;93.49
50103;BME280;35993;52.604;10.078;2023-11-21T11:47:23;101345.63;;;8.56;93.05
50103;BME280;35993;52.604;10.078;2023-11-21T11:50:08;101352.16;;;8.61;92.41
50103;BME280;35993;52.604;10.078;2023-11-21T11:52:45;101350.66;;;8.59;93.57
50103;BME280;35993;52.604;10.078;2023-11-21T11:55:14;101354.31;;;8.51;93.40
50103;BME280;35993;52.604;10.078;2023-11-21T11:57:46;101353.66;;;8.49;93.36
50103;BME280;35993;52.604;10.078;2023-11-21T12:00:22;101357.56;;;8.46;93.43
50103;BME280;35993;52.604;10.078;2023-11-21T12:03:08;101361.13;;;8.47;92.94
50103;BME280;35993;52.604;10.078;2023-11-21T12:05:39;101365.53;;;8.48;91.85
50103;BME280;35993;52.604;10.078;2023-11-21T12:08:07;101365.78;;;8.53;90.87
50103;BME280;35993;52.604;10.078;2023-11-21T12:10:39;101368.50;;;8.53;89.94
50103;BME280;35993;52.604;10.078;2023-11-21T12:13:15;101368.88;;;8.50;89.40
50103;BME280;35993;52.604;10.078;2023-11-21T12:16:03;101382.94;;;8.60;90.53
50103;BME280;35993;52.604;10.078;2023-11-21T12:18:30;101393.13;;;8.58;90.72
50103;BME280;35993;52.604;10.078;2023-11-21T12:20:57;101381.75;;;8.48;89.79
50103;BME280;35993;52.604;10.078;2023-11-21T12:23:26;101392.19;;;8.51;89.94
50103;BME280;35993;52.604;10.078;2023-11-21T12:25:52;101395.09;;;8.49;90.03
50103;BME280;35993;52.604;10.078;2023-11-21T12:28:20;101397.69;;;8.58;89.32
50103;BME280;35993;52.604;10.078;2023-11-21T12:30:48;101393.81;;;8.22;90.22
50103;BME280;35993;52.604;10.078;2023-11-21T12:33:13;101394.91;;;8.51;90.05
50103;BME280;35993;52.604;10.078;2023-11-21T12:35:49;101394.63;;;8.46;88.49
50103;BME280;35993;52.604;10.078;2023-11-21T12:38:43;101401.13;;;8.36;88.31
50103;BME280;35993;52.604;10.078;2023-11-21T12:41:11;101402.50;;;8.32;87.88
50103;BME280;35993;52.604;10.078;2023-11-21T12:43:41;101405.88;;;8.34;87.69
50103;BME280;35993;52.604;10.078;2023-11-21T12:46:12;101409.13;;;8.45;87.64
50103;BME280;35993;52.604;10.078;2023-11-21T12:48:46;101392.63;;;8.40;87.24
50103;BME280;35993;52.604;10.078;2023-11-21T12:51:18;101406.16;;;8.40;87.51
50103;BME280;35993;52.604;10.078;2023-11-21T12:53:44;101412.53;;;8.47;87.78
50103;BME280;35993;52.604;10.078;2023-11-21T12:56:15;101407.16;;;8.39;88.39
50103;BME280;35993;52.604;10.078;2023-11-21T12:58:46;101423.78;;;8.35;88.83
50103;BME280;35993;52.604;10.078;2023-11-21T13:01:41;101422.19;;;8.41;89.10
50103;BME280;35993;52.604;10.078;2023-11-21T13:04:10;101429.97;;;8.44;89.08
50103;BME280;35993;52.604;10.078;2023-11-21T13:06:50;101430.97;;;8.43;88.51
50103;BME280;35993;52.604;10.078;2023-11-21T13:09:18;101422.03;;;8.43;88.24
50103;BME280;35993;52.604;10.078;2023-11-21T13:11:51;101432.63;;;8.29;88.27
50103;BME280;35993;52.604;10.078;2023-11-21T13:14:29;101431.44;;;8.32;88.64
50103;BME280;35993;52.604;10.078;2023-11-21T13:17:00;101443.00;;;8.41;88.69
50103;BME280;35993;52.604;10.078;2023-11-21T13:19:27;101444.41;;;8.36;88.46
50103;BME280;35993;52.604;10.078;2023-11-21T13:21:55;101450.56;;;8.30;88.60
50103;BME280;35993;52.604;10.078;2023-11-21T13:24:21;101445.34;;;8.29;88.26
50103;BME280;35993;52.604;10.078;2023-11-21T13:26:50;101470.69;;;8.28;88.26
50103;BME280;35993;52.604;10.078;2023-11-21T13:29:17;101470.50;;;8.29;88.14
50103;BME280;35993;52.604;10.078;2023-11-21T13:31:47;101472.53;;;8.27;87.91
50103;BME280;35993;52.604;10.078;2023-11-21T13:34:16;101473.97;;;8.38;88.01
50103;BME280;35993;52.604;10.078;2023-11-21T13:36:44;101483.31;;;8.35;87.59
50103;BME280;35993;52.604;10.078;2023-11-21T13:39:11;101479.59;;;8.36;88.12
50103;BME280;35993;52.604;10.078;2023-11-21T13:41:40;101481.63;;;8.34;87.82